Accueil
METAR-TAF:

METAR-TAF

Aéroports :

Kimmirut, Nunavut, Canada

latitude: 62-51N, longitude: 069-53W, altitude: 53 m

Observation

Le bulletin a été fait il y a 12 heures et 22 minutes, à 15:00 UTC
Vent 10 kt de ouest avec des rafales jusqu'à 16 kt
Température 7°C
Humidité 87%
Pression 1005 hPa
Visibilité: 24.1 km
Nuages fragmentés à une hauteur de 900 ft
Ciel couvert à une hauteur de 4400 ft

METAR: CYLC 181500Z 27010G16KT 15SM BKN009 OVC044 07/05 A2967 RMK SC6SC2 8.7/6.3/0.0/0 LASTSTFD OBS/NEXT 201100Z SLP053

Heure: 23:22 (03:22 UTC)


TAF: absent

Observations et prévisions météorologiques de plus de 4000 aéroports (messages METAR et TAF).

Les stations disponibles sont représentées par des disques jaunes et rouges sur la carte.

Passer la souris dessus pour voir le nom de la station.

Cliquer dessus pour voir les observations et prévisions météorologiques.

Pour changer de carte: cliquez sur les boutons verts avec une croix noire pour zoomer, sur le bouton vert avec un tiret pour effectuer un zoom arrière, ou sur les flèches vertes pour les cartes adjacentes.


METAR-TAF: